sensor_id;sensor_type;location;lat;lon;timestamp;temperature;humidity
30628;DHT22;17394;50.890;4.724;2022-07-09T00:00:08;16.10;99.90
30628;DHT22;17394;50.890;4.724;2022-07-09T00:02:34;16.10;99.90
30628;DHT22;17394;50.890;4.724;2022-07-09T00:05:01;16.20;99.90
30628;DHT22;17394;50.890;4.724;2022-07-09T00:07:27;16.10;99.90
30628;DHT22;17394;50.890;4.724;2022-07-09T00:09:53;16.10;99.90
30628;DHT22;17394;50.890;4.724;2022-07-09T00:12:19;16.10;99.90
30628;DHT22;17394;50.890;4.724;2022-07-09T00:14:45;16.10;99.90
30628;DHT22;17394;50.890;4.724;2022-07-09T00:17:11;16.00;99.90
30628;DHT22;17394;50.890;4.724;2022-07-09T00:19:37;16.00;99.90
30628;DHT22;17394;50.890;4.724;2022-07-09T00:22:03;16.00;99.90
30628;DHT22;17394;50.890;4.724;2022-07-09T00:24:31;16.00;99.90
30628;DHT22;17394;50.890;4.724;2022-07-09T00:26:57;15.90;99.90
30628;DHT22;17394;50.890;4.724;2022-07-09T00:29:23;15.90;99.90
30628;DHT22;17394;50.890;4.724;2022-07-09T00:31:49;15.90;99.90
30628;DHT22;17394;50.890;4.724;2022-07-09T00:34:15;15.80;99.90
30628;DHT22;17394;50.890;4.724;2022-07-09T00:36:41;15.80;99.90
30628;DHT22;17394;50.890;4.724;2022-07-09T00:39:07;15.80;99.90
30628;DHT22;17394;50.890;4.724;2022-07-09T00:41:33;15.70;99.90
30628;DHT22;17394;50.890;4.724;2022-07-09T00:43:59;15.70;99.90
30628;DHT22;17394;50.890;4.724;2022-07-09T00:46:25;15.70;99.90
30628;DHT22;17394;50.890;4.724;2022-07-09T00:48:51;15.70;99.90
30628;DHT22;17394;50.890;4.724;2022-07-09T00:51:18;15.70;99.90
30628;DHT22;17394;50.890;4.724;2022-07-09T00:53:46;15.70;99.90
30628;DHT22;17394;50.890;4.724;2022-07-09T00:56:15;15.60;99.90
30628;DHT22;17394;50.890;4.724;2022-07-09T00:58:44;15.60;99.90
30628;DHT22;17394;50.890;4.724;2022-07-09T01:01:10;15.60;99.90
30628;DHT22;17394;50.890;4.724;2022-07-09T01:03:36;15.50;99.90
30628;DHT22;17394;50.890;4.724;2022-07-09T01:06:02;15.50;99.90
30628;DHT22;17394;50.890;4.724;2022-07-09T01:08:29;15.50;99.90
30628;DHT22;17394;50.890;4.724;2022-07-09T01:10:55;15.40;99.90
30628;DHT22;17394;50.890;4.724;2022-07-09T01:13:21;15.40;99.90
30628;DHT22;17394;50.890;4.724;2022-07-09T01:15:47;15.40;99.90
30628;DHT22;17394;50.890;4.724;2022-07-09T01:18:13;15.40;99.90
30628;DHT22;17394;50.890;4.724;2022-07-09T01:20:39;15.40;99.90
30628;DHT22;17394;50.890;4.724;2022-07-09T01:23:05;15.40;99.90
30628;DHT22;17394;50.890;4.724;2022-07-09T01:25:41;15.30;99.90
30628;DHT22;17394;50.890;4.724;2022-07-09T01:28:09;15.40;99.90
30628;DHT22;17394;50.890;4.724;2022-07-09T01:30:38;15.30;99.90
30628;DHT22;17394;50.890;4.724;2022-07-09T01:33:06;15.30;99.90
30628;DHT22;17394;50.890;4.724;2022-07-09T01:35:32;15.30;99.90
30628;DHT22;17394;50.890;4.724;2022-07-09T01:37:59;15.30;99.90
30628;DHT22;17394;50.890;4.724;2022-07-09T01:40:25;15.30;99.90
30628;DHT22;17394;50.890;4.724;2022-07-09T01:42:51;15.20;99.90
30628;DHT22;17394;50.890;4.724;2022-07-09T01:45:17;15.20;99.90
30628;DHT22;17394;50.890;4.724;2022-07-09T01:47:44;15.20;99.90
30628;DHT22;17394;50.890;4.724;2022-07-09T01:50:10;15.20;99.90
30628;DHT22;17394;50.890;4.724;2022-07-09T01:52:37;15.20;99.90
30628;DHT22;17394;50.890;4.724;2022-07-09T01:55:03;15.20;99.90
30628;DHT22;17394;50.890;4.724;2022-07-09T01:57:30;15.10;99.90
30628;DHT22;17394;50.890;4.724;2022-07-09T01:59:56;15.10;99.90
30628;DHT22;17394;50.890;4.724;2022-07-09T02:02:22;15.10;99.90
30628;DHT22;17394;50.890;4.724;2022-07-09T02:04:48;15.10;99.90
30628;DHT22;17394;50.890;4.724;2022-07-09T02:07:14;15.00;99.90
30628;DHT22;17394;50.890;4.724;2022-07-09T02:09:41;15.00;99.90
30628;DHT22;17394;50.890;4.724;2022-07-09T02:12:08;15.00;99.90
30628;DHT22;17394;50.890;4.724;2022-07-09T02:14:34;15.00;99.90
30628;DHT22;17394;50.890;4.724;2022-07-09T02:17:00;14.90;99.90
30628;DHT22;17394;50.890;4.724;2022-07-09T02:19:26;14.90;99.90
30628;DHT22;17394;50.890;4.724;2022-07-09T02:21:52;14.90;99.90
30628;DHT22;17394;50.890;4.724;2022-07-09T02:24:18;14.90;99.90
30628;DHT22;17394;50.890;4.724;2022-07-09T02:26:44;14.90;99.90
30628;DHT22;17394;50.890;4.724;2022-07-09T02:29:10;14.80;99.90
30628;DHT22;17394;50.890;4.724;2022-07-09T02:31:36;14.80;99.90
30628;DHT22;17394;50.890;4.724;2022-07-09T02:34:02;14.80;99.90
30628;DHT22;17394;50.890;4.724;2022-07-09T02:36:29;14.80;99.90
30628;DHT22;17394;50.890;4.724;2022-07-09T02:38:55;14.70;99.90
30628;DHT22;17394;50.890;4.724;2022-07-09T02:41:21;14.70;99.90
30628;DHT22;17394;50.890;4.724;2022-07-09T02:43:47;14.70;99.90
30628;DHT22;17394;50.890;4.724;2022-07-09T02:46:13;14.60;99.90
30628;DHT22;17394;50.890;4.724;2022-07-09T02:48:39;14.70;99.90
30628;DHT22;17394;50.890;4.724;2022-07-09T02:51:05;14.60;99.90
30628;DHT22;17394;50.890;4.724;2022-07-09T02:53:31;14.60;99.90
30628;DHT22;17394;50.890;4.724;2022-07-09T02:55:57;14.60;99.90
30628;DHT22;17394;50.890;4.724;2022-07-09T02:58:23;14.50;99.90
30628;DHT22;17394;50.890;4.724;2022-07-09T03:00:49;14.50;99.90
30628;DHT22;17394;50.890;4.724;2022-07-09T03:03:15;14.50;99.90
30628;DHT22;17394;50.890;4.724;2022-07-09T03:05:41;14.40;99.90
30628;DHT22;17394;50.890;4.724;2022-07-09T03:08:07;14.50;99.90
30628;DHT22;17394;50.890;4.724;2022-07-09T03:10:34;14.50;99.90
30628;DHT22;17394;50.890;4.724;2022-07-09T03:13:01;14.50;99.90
30628;DHT22;17394;50.890;4.724;2022-07-09T03:15:27;14.40;99.90
30628;DHT22;17394;50.890;4.724;2022-07-09T03:17:53;14.40;99.90
30628;DHT22;17394;50.890;4.724;2022-07-09T03:20:19;14.40;99.90
30628;DHT22;17394;50.890;4.724;2022-07-09T03:22:45;14.30;99.90
30628;DHT22;17394;50.890;4.724;2022-07-09T03:25:11;14.30;99.90
30628;DHT22;17394;50.890;4.724;2022-07-09T03:27:37;14.30;99.90
30628;DHT22;17394;50.890;4.724;2022-07-09T03:30:05;14.30;99.90
30628;DHT22;17394;50.890;4.724;2022-07-09T03:32:31;14.30;99.90
30628;DHT22;17394;50.890;4.724;2022-07-09T03:34:56;14.30;99.90
30628;DHT22;17394;50.890;4.724;2022-07-09T03:37:23;14.30;99.90
30628;DHT22;17394;50.890;4.724;2022-07-09T03:39:49;14.30;99.90
30628;DHT22;17394;50.890;4.724;2022-07-09T03:42:15;14.30;99.90
30628;DHT22;17394;50.890;4.724;2022-07-09T03:44:41;14.20;99.90
30628;DHT22;17394;50.890;4.724;2022-07-09T03:47:08;14.20;99.90
30628;DHT22;17394;50.890;4.724;2022-07-09T03:49:34;14.20;99.90
30628;DHT22;17394;50.890;4.724;2022-07-09T03:52:00;14.20;99.90
30628;DHT22;17394;50.890;4.724;2022-07-09T03:54:26;14.20;99.90
30628;DHT22;17394;50.890;4.724;2022-07-09T03:56:52;14.30;99.90
30628;DHT22;17394;50.890;4.724;2022-07-09T03:59:18;14.20;99.90
30628;DHT22;17394;50.890;4.724;2022-07-09T04:01:45;14.30;99.90
30628;DHT22;17394;50.890;4.724;2022-07-09T04:04:11;14.30;99.90
30628;DHT22;17394;50.890;4.724;2022-07-09T04:06:37;14.40;99.90
30628;DHT22;17394;50.890;4.724;2022-07-09T04:09:03;14.40;99.90
30628;DHT22;17394;50.890;4.724;2022-07-09T04:11:32;14.50;99.90
30628;DHT22;17394;50.890;4.724;2022-07-09T04:14:00;14.60;99.90
30628;DHT22;17394;50.890;4.724;2022-07-09T04:16:27;14.60;99.90
30628;DHT22;17394;50.890;4.724;2022-07-09T04:18:54;14.60;99.90
30628;DHT22;17394;50.890;4.724;2022-07-09T04:21:21;14.70;99.90
30628;DHT22;17394;50.890;4.724;2022-07-09T04:23:49;14.80;99.90
30628;DHT22;17394;50.890;4.724;2022-07-09T04:26:16;14.80;99.90
30628;DHT22;17394;50.890;4.724;2022-07-09T04:28:42;14.90;99.90
30628;DHT22;17394;50.890;4.724;2022-07-09T04:31:08;15.00;99.90
